Time;durP1;ratioP1;P1;durP2;ratioP2;P2;SDS_P1;SDS_P2;PMS_P1;PMS_P2;Temp;Humidity;BMP_temperature;BMP_pressure;BME280_temperature;BME280_humidity;BME280_pressure;Samples;Min_cycle;Max_cycle;Signal;HPM_P1;HPM_P2
2023/08/21 00:01:05;;;;;;;7.60;2.80;;;17.40;99.90;;;;;;5028503;28;20929;-49
2023/08/21 00:03:32;;;;;;;5.63;2.80;;;17.40;99.90;;;;;;5030861;28;20211;-47
2023/08/21 00:05:59;;;;;;;6.67;2.80;;;17.30;99.90;;;;;;5017620;28;20285;-57
2023/08/21 00:08:25;;;;;;;5.70;2.40;;;17.30;99.90;;;;;;5025612;28;20261;-54
2023/08/21 00:10:52;;;;;;;5.10;2.83;;;17.30;99.90;;;;;;5025710;28;20697;-56
2023/08/21 00:13:20;;;;;;;2.70;2.50;;;17.30;99.90;;;;;;5007659;28;20317;-48
2023/08/21 00:15:47;;;;;;;4.83;2.80;;;17.20;99.90;;;;;;5024011;28;20216;-55
2023/08/21 00:18:14;;;;;;;2.77;2.50;;;17.20;99.90;;;;;;5026680;28;20941;-49
2023/08/21 00:20:42;;;;;;;4.57;2.30;;;17.10;99.90;;;;;;5028590;28;20200;-47
2023/08/21 00:23:09;;;;;;;6.00;3.03;;;17.10;99.90;;;;;;5014740;28;20216;-49
2023/08/21 00:25:36;;;;;;;5.53;2.50;;;17.20;99.90;;;;;;5026850;28;20274;-51
2023/08/21 00:28:03;;;;;;;5.17;2.67;;;17.20;99.90;;;;;;5005792;28;23307;-50
2023/08/21 00:30:31;;;;;;;5.20;3.00;;;17.10;99.90;;;;;;5026421;28;20200;-50
2023/08/21 00:32:58;;;;;;;6.83;2.30;;;17.10;99.90;;;;;;5023757;28;20270;-52
2023/08/21 00:35:25;;;;;;;3.13;2.90;;;17.00;99.90;;;;;;5025893;28;20270;-50
2023/08/21 00:37:52;;;;;;;6.87;3.20;;;17.00;99.90;;;;;;5017176;28;20207;-55
2023/08/21 00:40:19;;;;;;;5.80;2.70;;;16.90;99.90;;;;;;5024354;28;20202;-51
2023/08/21 00:42:45;;;;;;;3.53;2.67;;;16.80;99.90;;;;;;5025477;28;20224;-53
2023/08/21 00:45:12;;;;;;;5.40;2.93;;;16.80;99.90;;;;;;5004031;28;20227;-49
2023/08/21 00:47:43;;;;;;;4.60;2.97;;;16.90;99.90;;;;;;5029755;28;20199;-50
2023/08/21 00:50:11;;;;;;;2.77;2.30;;;16.90;99.90;;;;;;5030732;28;20203;-46
2023/08/21 00:52:40;;;;;;;5.80;2.80;;;16.80;99.90;;;;;;5022888;28;20308;-48
2023/08/21 00:55:07;;;;;;;7.23;3.07;;;16.80;99.90;;;;;;5016795;28;20192;-47
2023/08/21 00:57:34;;;;;;;3.13;2.50;;;16.70;99.90;;;;;;5031244;28;20214;-51
2023/08/21 01:00:02;;;;;;;2.90;2.60;;;16.70;99.90;;;;;;5009703;28;20192;-55
2023/08/21 01:02:29;;;;;;;6.70;3.10;;;16.70;99.90;;;;;;5026520;28;20219;-49
2023/08/21 01:04:56;;;;;;;4.03;3.00;;;16.70;99.90;;;;;;5026188;28;20285;-56
2023/08/21 01:07:23;;;;;;;3.23;2.63;;;16.60;99.90;;;;;;5029526;28;20188;-47
2023/08/21 01:09:59;;;;;;;6.37;3.17;;;16.60;99.90;;;;;;5017710;28;20199;-55
2023/08/21 01:12:36;;;;;;;3.23;2.60;;;16.60;99.90;;;;;;5023090;28;20211;-49
2023/08/21 01:15:07;;;;;;;8.17;3.00;;;16.50;99.90;;;;;;5019644;28;20196;-50
2023/08/21 01:17:36;;;;;;;4.67;2.57;;;16.50;99.90;;;;;;5013497;28;20288;-46
2023/08/21 01:20:09;;;;;;;10.17;3.17;;;16.50;99.90;;;;;;5018730;28;20192;-50
2023/08/21 01:22:37;;;;;;;5.00;2.70;;;16.50;99.90;;;;;;5025525;28;20224;-47
2023/08/21 01:25:06;;;;;;;3.30;2.60;;;16.50;99.90;;;;;;5009964;28;20212;-45
2023/08/21 01:27:34;;;;;;;4.63;2.70;;;16.50;99.90;;;;;;5026735;28;20199;-46
2023/08/21 01:30:02;;;;;;;7.00;2.90;;;16.40;99.90;;;;;;5020522;28;20315;-57
2023/08/21 01:32:35;;;;;;;3.80;2.50;;;16.40;99.90;;;;;;5012061;28;20889;-47
2023/08/21 01:35:03;;;;;;;7.87;3.10;;;16.40;99.90;;;;;;5017491;28;20196;-55
2023/08/21 01:37:31;;;;;;;4.27;2.50;;;16.30;99.90;;;;;;5029532;28;20212;-51
2023/08/21 01:39:59;;;;;;;5.67;2.70;;;16.30;99.90;;;;;;5019093;28;20265;-55
2023/08/21 01:42:27;;;;;;;4.70;3.13;;;16.30;99.90;;;;;;5022386;28;20232;-52
2023/08/21 01:44:54;;;;;;;9.80;2.97;;;16.30;99.90;;;;;;5022705;28;20624;-57
2023/08/21 01:47:22;;;;;;;3.70;3.40;;;16.30;99.90;;;;;;5004771;28;20216;-52
2023/08/21 01:49:52;;;;;;;7.50;3.43;;;16.20;99.90;;;;;;5022776;28;20589;-54
2023/08/21 01:52:18;;;;;;;4.60;2.63;;;16.20;99.90;;;;;;5024141;28;20978;-49
2023/08/21 01:54:47;;;;;;;8.10;3.10;;;16.20;99.90;;;;;;5022463;28;20199;-56
2023/08/21 01:57:14;;;;;;;5.17;2.80;;;16.10;99.90;;;;;;5013357;28;20432;-51
2023/08/21 01:59:43;;;;;;;3.23;2.83;;;16.10;99.90;;;;;;5035462;28;20261;-46
2023/08/21 02:02:11;;;;;;;2.87;2.20;;;16.10;99.90;;;;;;5014848;28;20219;-46
2023/08/21 02:04:38;;;;;;;2.93;2.47;;;16.00;99.90;;;;;;5031375;28;20207;-48
2023/08/21 02:07:05;;;;;;;5.60;2.77;;;16.00;99.90;;;;;;5029481;28;20230;-47
2023/08/21 02:09:32;;;;;;;3.47;2.77;;;16.00;99.90;;;;;;5024010;28;20266;-47
2023/08/21 02:11:58;;;;;;;2.93;2.60;;;16.10;99.90;;;;;;5012935;28;20225;-55
2023/08/21 02:14:25;;;;;;;5.60;2.73;;;16.20;99.90;;;;;;5024579;28;20191;-49
2023/08/21 02:16:54;;;;;;;4.40;3.00;;;16.30;99.90;;;;;;5028020;28;20203;-53
2023/08/21 02:19:20;;;;;;;6.40;3.53;;;16.40;99.90;;;;;;5002943;28;20211;-48
2023/08/21 02:21:48;;;;;;;5.57;3.17;;;16.30;99.90;;;;;;5029225;28;20187;-53
2023/08/21 02:24:14;;;;;;;5.67;3.17;;;16.30;99.90;;;;;;5024582;28;20914;-49
2023/08/21 02:26:42;;;;;;;3.77;3.20;;;16.30;99.90;;;;;;5023063;28;20257;-54
2023/08/21 02:29:09;;;;;;;6.03;3.50;;;16.40;99.90;;;;;;5011623;28;20204;-48
2023/08/21 02:31:36;;;;;;;4.23;3.33;;;16.20;99.90;;;;;;5029310;28;20196;-47
2023/08/21 02:34:04;;;;;;;7.27;4.37;;;16.20;99.90;;;;;;5005607;28;20745;-50
2023/08/21 02:36:31;;;;;;;7.23;3.30;;;16.30;99.90;;;;;;5029565;28;20200;-48
2023/08/21 02:38:59;;;;;;;6.50;4.23;;;16.30;99.90;;;;;;5025893;28;20200;-55
2023/08/21 02:41:26;;;;;;;6.40;4.10;;;16.20;99.90;;;;;;5026393;28;20291;-45
2023/08/21 02:43:53;;;;;;;5.60;4.37;;;16.20;99.90;;;;;;5020055;28;20285;-56
2023/08/21 02:46:21;;;;;;;6.60;4.40;;;16.20;99.90;;;;;;5018918;28;20318;-48
2023/08/21 02:48:48;;;;;;;5.83;5.20;;;16.20;99.90;;;;;;5007326;28;20204;-57
2023/08/21 02:51:16;;;;;;;7.33;4.73;;;16.10;99.90;;;;;;5026371;28;20207;-49
2023/08/21 02:53:43;;;;;;;7.03;5.00;;;16.10;99.90;;;;;;5022371;28;20231;-55
2023/08/21 02:56:10;;;;;;;7.60;4.93;;;16.00;99.90;;;;;;5041898;28;20629;-47
2023/08/21 02:58:38;;;;;;;6.70;4.93;;;16.10;99.90;;;;;;5028956;28;20665;-52
2023/08/21 03:01:05;;;;;;;8.73;6.17;;;16.20;99.90;;;;;;5028247;28;20192;-49
2023/08/21 03:03:33;;;;;;;11.33;5.87;;;16.20;99.90;;;;;;5037969;28;20226;-54
2023/08/21 03:06:00;;;;;;;8.50;6.33;;;16.10;99.90;;;;;;5015717;28;20214;-45
2023/08/21 03:08:28;;;;;;;10.63;6.07;;;16.10;99.90;;;;;;5027554;28;20203;-49
2023/08/21 03:10:55;;;;;;;9.10;5.40;;;16.10;99.90;;;;;;5033428;28;20249;-47
2023/08/21 03:13:22;;;;;;;8.90;7.13;;;16.10;99.90;;;;;;5030226;28;20246;-49
2023/08/21 03:15:49;;;;;;;10.77;7.00;;;16.20;99.90;;;;;;5026519;28;20723;-57
2023/08/21 03:18:16;;;;;;;14.53;8.07;;;16.10;99.90;;;;;;5034526;28;20226;-52
2023/08/21 03:20:45;;;;;;;10.27;7.33;;;16.20;99.90;;;;;;5019129;28;20222;-58
2023/08/21 03:23:12;;;;;;;14.63;8.93;;;16.20;99.90;;;;;;5032090;28;20269;-49
2023/08/21 03:25:40;;;;;;;11.47;8.87;;;16.30;99.90;;;;;;5029851;28;20211;-55
2023/08/21 03:28:07;;;;;;;15.83;8.43;;;16.40;99.90;;;;;;5033045;28;20433;-53
2023/08/21 03:30:34;;;;;;;15.87;9.63;;;16.40;99.90;;;;;;5022221;28;20342;-56
2023/08/21 03:33:01;;;;;;;18.83;10.53;;;16.40;99.90;;;;;;5030813;28;20241;-49
2023/08/21 03:35:27;;;;;;;15.37;9.77;;;16.50;99.90;;;;;;5030724;28;20204;-45
2023/08/21 03:37:54;;;;;;;17.10;9.40;;;16.50;99.90;;;;;;5012348;28;20218;-54
2023/08/21 03:40:21;;;;;;;12.97;9.20;;;16.50;99.90;;;;;;5027458;28;20196;-46
2023/08/21 03:42:51;;;;;;;13.20;8.93;;;16.50;99.90;;;;;;5026981;28;20868;-50
2023/08/21 03:45:18;;;;;;;10.47;8.83;;;16.50;99.90;;;;;;5013636;28;20276;-50
2023/08/21 03:47:45;;;;;;;13.87;8.80;;;16.50;99.90;;;;;;5026210;28;20257;-56
2023/08/21 03:50:17;;;;;;;14.73;9.10;;;16.50;99.90;;;;;;5023546;28;20223;-47
2023/08/21 03:52:44;;;;;;;13.63;7.80;;;16.60;99.90;;;;;;5016108;28;20276;-56
2023/08/21 03:55:11;;;;;;;12.17;8.87;;;16.60;99.90;;;;;;5029936;28;20203;-51
2023/08/21 03:57:38;;;;;;;13.20;8.57;;;16.60;99.90;;;;;;5029148;28;20196;-55
2023/08/21 04:00:09;;;;;;;13.10;8.43;;;16.60;99.90;;;;;;5025168;28;20207;-45
2023/08/21 04:02:42;;;;;;;16.57;8.37;;;16.60;99.90;;;;;;5021539;28;20227;-55
2023/08/21 04:05:10;;;;;;;11.87;8.30;;;16.60;99.90;;;;;;5036908;28;20204;-52
2023/08/21 04:07:37;;;;;;;14.93;9.13;;;16.70;99.90;;;;;;5023726;28;20199;-57
2023/08/21 04:10:05;;;;;;;16.90;9.43;;;16.60;99.90;;;;;;5017694;28;20253;-47
2023/08/21 04:12:32;;;;;;;15.60;9.40;;;16.60;99.90;;;;;;5017994;28;20228;-47
2023/08/21 04:14:58;;;;;;;17.33;8.67;;;16.60;99.90;;;;;;5024930;28;20624;-46
2023/08/21 04:17:26;;;;;;;14.20;8.07;;;16.60;99.90;;;;;;5019731;28;20203;-53
2023/08/21 04:19:54;;;;;;;11.47;8.60;;;16.60;99.90;;;;;;5024701;28;20242;-53
2023/08/21 04:22:20;;;;;;;11.97;7.53;;;16.60;99.90;;;;;;5029460;28;20224;-54
2023/08/21 04:24:47;;;;;;;10.83;7.17;;;16.60;99.90;;;;;;5008667;28;20204;-58
2023/08/21 04:27:14;;;;;;;11.60;7.00;;;16.60;99.90;;;;;;5027351;28;20635;-48
2023/08/21 04:29:41;;;;;;;15.93;8.53;;;16.60;99.90;;;;;;5022638;28;20188;-56
2023/08/21 04:32:08;;;;;;;13.70;8.53;;;16.60;99.90;;;;;;5025994;28;20605;-55
2023/08/21 04:34:36;;;;;;;12.00;8.20;;;16.60;99.90;;;;;;5020381;28;20264;-57
2023/08/21 04:37:04;;;;;;;15.67;8.67;;;16.50;99.90;;;;;;5012711;28;20680;-52
2023/08/21 04:39:32;;;;;;;14.57;7.97;;;16.50;99.90;;;;;;5019168;28;20219;-50
2023/08/21 04:41:59;;;;;;;12.13;8.80;;;16.60;99.90;;;;;;5022014;28;20245;-56
2023/08/21 04:44:26;;;;;;;14.83;8.13;;;16.60;99.90;;;;;;5030656;28;20203;-49
2023/08/21 04:46:53;;;;;;;9.97;8.10;;;16.60;99.90;;;;;;5027495;28;20760;-55
2023/08/21 04:49:20;;;;;;;11.03;8.00;;;16.50;99.90;;;;;;5020129;28;20208;-48
2023/08/21 04:51:48;;;;;;;13.30;8.40;;;16.50;99.90;;;;;;5029744;28;20191;-51
2023/08/21 04:54:15;;;;;;;14.93;8.97;;;16.60;99.90;;;;;;4995959;28;20212;-51
2023/08/21 04:56:42;;;;;;;17.43;8.03;;;16.60;99.90;;;;;;5023002;28;20216;-55
2023/08/21 04:59:11;;;;;;;11.67;8.23;;;16.60;99.90;;;;;;5030458;28;20203;-54
2023/08/21 05:01:38;;;;;;;12.00;8.87;;;16.70;99.90;;;;;;5008942;28;20195;-53
2023/08/21 05:04:05;;;;;;;11.43;7.83;;;16.60;99.90;;;;;;5015213;28;20293;-50
2023/08/21 05:06:32;;;;;;;14.50;9.33;;;16.70;99.90;;;;;;5027136;28;20219;-47
2023/08/21 05:09:00;;;;;;;13.17;8.83;;;16.70;99.90;;;;;;4987449;28;20220;-48
2023/08/21 05:11:27;;;;;;;9.47;8.33;;;16.70;99.90;;;;;;5025133;28;20238;-51
2023/08/21 05:13:54;;;;;;;15.53;8.37;;;16.70;99.90;;;;;;5012485;28;20315;-54
2023/08/21 05:16:22;;;;;;;14.90;7.50;;;16.70;99.90;;;;;;5030009;28;20258;-51
2023/08/21 05:18:49;;;;;;;15.50;8.07;;;16.70;99.90;;;;;;5015461;28;20200;-55
2023/08/21 05:21:17;;;;;;;12.67;8.70;;;16.70;99.90;;;;;;5023189;28;20200;-50
2023/08/21 05:23:44;;;;;;;13.57;8.67;;;16.70;99.90;;;;;;5004270;28;20220;-57
2023/08/21 05:26:12;;;;;;;12.80;8.07;;;16.80;99.90;;;;;;5021279;28;21003;-51
2023/08/21 05:28:39;;;;;;;14.30;8.60;;;16.80;99.90;;;;;;5019329;28;20214;-57
2023/08/21 05:31:06;;;;;;;13.50;7.97;;;16.80;99.90;;;;;;5019743;28;20196;-52
2023/08/21 05:33:46;;;;;;;13.53;8.40;;;16.90;99.90;;;;;;5014481;28;20216;-56
2023/08/21 05:36:13;;;;;;;12.93;8.30;;;16.90;99.90;;;;;;5017846;28;20196;-49
2023/08/21 05:38:39;;;;;;;16.07;7.90;;;16.90;99.90;;;;;;5004159;28;20662;-53
2023/08/21 05:41:06;;;;;;;14.87;8.23;;;16.90;99.90;;;;;;5010317;28;20204;-46
2023/08/21 05:43:35;;;;;;;11.97;7.03;;;17.00;99.90;;;;;;5018586;28;20215;-53
2023/08/21 05:46:02;;;;;;;11.50;7.83;;;17.00;99.90;;;;;;5021453;28;20293;-51
2023/08/21 05:48:29;;;;;;;12.47;7.00;;;17.10;99.90;;;;;;5026590;28;20210;-51
2023/08/21 05:50:57;;;;;;;15.77;7.90;;;17.10;99.90;;;;;;5015033;28;20196;-50
2023/08/21 05:53:23;;;;;;;14.77;7.33;;;17.20;99.90;;;;;;5024996;28;20298;-53
2023/08/21 05:55:53;;;;;;;14.17;6.33;;;17.20;99.90;;;;;;4993514;28;20231;-55
2023/08/21 05:58:20;;;;;;;8.23;6.33;;;17.20;99.90;;;;;;5016387;28;20207;-52
2023/08/21 06:00:48;;;;;;;14.17;6.70;;;17.20;99.90;;;;;;5026979;28;20310;-50
2023/08/21 06:03:15;;;;;;;8.57;5.00;;;17.30;99.90;;;;;;5021448;28;20706;-57
2023/08/21 06:06:05;;;;;;;14.53;5.77;;;17.30;99.90;;;;;;5011345;28;20830;-55
2023/08/21 06:08:32;;;;;;;10.23;5.57;;;17.40;99.90;;;;;;5021241;28;20196;-55
2023/08/21 06:10:59;;;;;;;11.07;5.20;;;17.40;99.90;;;;;;4993706;28;20200;-56
2023/08/21 06:13:26;;;;;;;9.87;4.30;;;17.40;99.90;;;;;;5019625;28;20216;-56
2023/08/21 06:15:56;;;;;;;11.17;5.40;;;17.50;99.90;;;;;;5020772;28;20323;-49
2023/08/21 06:18:24;;;;;;;11.43;5.13;;;17.50;99.90;;;;;;5028321;28;20196;-55
2023/08/21 06:20:53;;;;;;;8.97;5.30;;;17.60;99.90;;;;;;5013089;28;20202;-48
2023/08/21 06:23:20;;;;;;;11.97;5.10;;;17.60;99.90;;;;;;5022017;28;20223;-52
2023/08/21 06:25:48;;;;;;;13.00;5.40;;;17.70;99.90;;;;;;5007677;28;21478;-46
2023/08/21 06:28:16;;;;;;;8.33;4.23;;;17.70;99.90;;;;;;5011486;28;20635;-44
2023/08/21 06:30:43;;;;;;;9.40;5.07;;;17.80;99.90;;;;;;5015211;28;20208;-49
2023/08/21 06:33:11;;;;;;;9.97;4.77;;;17.80;99.90;;;;;;5020141;28;20247;-54
2023/08/21 06:35:39;;;;;;;12.93;4.00;;;17.90;99.90;;;;;;5020159;28;20202;-46
2023/08/21 06:38:06;;;;;;;7.63;3.90;;;17.90;99.90;;;;;;5018692;28;20254;-52
2023/08/21 06:40:34;;;;;;;9.23;4.70;;;18.00;99.90;;;;;;5022552;28;20666;-46
2023/08/21 06:43:01;;;;;;;9.67;4.30;;;18.00;99.90;;;;;;4998581;28;20495;-48
2023/08/21 06:45:32;;;;;;;9.87;3.67;;;18.10;99.90;;;;;;5015718;28;20200;-51
2023/08/21 06:48:00;;;;;;;6.87;3.17;;;18.10;99.90;;;;;;5009735;28;20263;-53
2023/08/21 06:50:28;;;;;;;8.30;2.90;;;18.20;99.90;;;;;;5014759;28;20904;-51
2023/08/21 06:52:55;;;;;;;9.47;3.40;;;18.30;99.90;;;;;;5015973;28;20223;-57
2023/08/21 06:55:22;;;;;;;9.33;3.73;;;18.30;99.90;;;;;;5020601;28;20253;-53
2023/08/21 06:57:49;;;;;;;10.20;4.13;;;18.40;99.90;;;;;;4996333;28;20232;-52
2023/08/21 07:00:16;;;;;;;8.33;3.20;;;18.40;99.90;;;;;;5014873;28;20227;-50
2023/08/21 07:02:43;;;;;;;12.80;3.27;;;18.50;99.90;;;;;;5025482;28;20263;-54
2023/08/21 07:05:10;;;;;;;5.90;3.50;;;18.50;99.90;;;;;;5017806;28;20266;-50
2023/08/21 07:07:38;;;;;;;3.83;2.60;;;18.60;99.90;;;;;;5015801;28;20235;-53
2023/08/21 07:10:05;;;;;;;6.53;2.80;;;18.60;99.90;;;;;;5028469;28;20188;-59
2023/08/21 07:12:32;;;;;;;7.70;2.97;;;18.70;99.90;;;;;;4989690;28;20226;-51
2023/08/21 07:14:59;;;;;;;4.73;2.67;;;18.80;99.90;;;;;;5023621;28;20700;-55
2023/08/21 07:17:26;;;;;;;4.83;2.70;;;18.80;99.90;;;;;;5019163;28;20285;-51
2023/08/21 07:19:53;;;;;;;5.60;2.37;;;18.80;99.90;;;;;;5009498;28;20654;-56
2023/08/21 07:22:20;;;;;;;7.47;2.33;;;18.90;99.90;;;;;;5020237;28;20216;-52
2023/08/21 07:24:48;;;;;;;6.57;2.30;;;18.90;99.90;;;;;;5022328;28;20291;-55
2023/08/21 07:27:15;;;;;;;8.00;1.67;;;19.00;99.90;;;;;;5025444;28;20222;-55
2023/08/21 07:29:42;;;;;;;7.80;2.00;;;19.00;99.90;;;;;;5003829;28;20224;-49
2023/08/21 07:32:09;;;;;;;3.87;1.50;;;19.10;99.90;;;;;;5020809;28;20219;-56
2023/08/21 07:34:36;;;;;;;6.37;2.07;;;19.10;99.90;;;;;;5031502;28;20868;-47
2023/08/21 07:37:03;;;;;;;7.37;1.87;;;19.10;99.90;;;;;;5024062;28;20293;-51
2023/08/21 07:39:30;;;;;;;7.30;1.73;;;19.20;99.90;;;;;;5019864;28;20194;-46
2023/08/21 07:41:58;;;;;;;3.93;1.60;;;19.30;99.90;;;;;;5031866;28;20279;-50
2023/08/21 07:44:24;;;;;;;6.77;1.47;;;19.40;99.90;;;;;;4997856;28;20232;-53
2023/08/21 07:46:51;;;;;;;6.17;2.27;;;19.40;99.90;;;;;;5021112;28;20786;-54
2023/08/21 07:49:18;;;;;;;6.70;1.83;;;19.50;99.90;;;;;;5026985;28;20266;-48
2023/08/21 07:51:45;;;;;;;7.43;1.80;;;19.50;99.90;;;;;;5023758;28;20208;-54
2023/08/21 07:54:12;;;;;;;3.57;1.13;;;19.60;99.90;;;;;;5014828;28;20272;-51
2023/08/21 07:56:40;;;;;;;4.77;1.53;;;19.60;99.90;;;;;;5022042;28;20279;-48
2023/08/21 07:59:10;;;;;;;4.27;1.10;;;19.70;99.90;;;;;;5009125;28;20689;-52
2023/08/21 08:01:37;;;;;;;7.10;1.20;;;19.70;99.90;;;;;;5007445;28;20396;-49
2023/08/21 08:04:05;;;;;;;6.30;1.40;;;19.80;99.90;;;;;;5024566;28;20212;-47
2023/08/21 08:06:33;;;;;;;2.43;1.43;;;19.80;99.90;;;;;;5022587;28;20211;-52
2023/08/21 08:09:00;;;;;;;1.63;1.03;;;19.90;99.90;;;;;;5020004;28;20200;-52
2023/08/21 08:11:27;;;;;;;5.73;1.53;;;20.00;99.90;;;;;;5016100;28;20918;-51
2023/08/21 08:13:54;;;;;;;6.50;1.40;;;20.00;99.90;;;;;;5019894;28;20251;-49
2023/08/21 08:16:23;;;;;;;6.33;1.37;;;20.10;99.90;;;;;;4998504;28;20211;-53
2023/08/21 08:18:51;;;;;;;2.67;1.27;;;20.10;99.90;;;;;;5026651;28;20192;-52
2023/08/21 08:21:18;;;;;;;5.50;1.13;;;20.10;99.90;;;;;;5029703;28;20200;-48
2023/08/21 08:23:46;;;;;;;4.70;1.37;;;20.20;99.90;;;;;;5023010;28;20226;-50
2023/08/21 08:26:14;;;;;;;3.73;1.20;;;20.20;99.90;;;;;;5019227;28;20218;-49
2023/08/21 08:28:41;;;;;;;4.23;1.27;;;20.40;99.90;;;;;;5026799;28;20187;-50
2023/08/21 08:31:16;;;;;;;3.40;1.37;;;20.50;99.90;;;;;;4996504;28;20687;-47
2023/08/21 08:33:45;;;;;;;3.93;1.50;;;20.50;99.90;;;;;;5012250;28;20615;-52
2023/08/21 08:36:12;;;;;;;6.68;1.10;;;20.60;99.90;;;;;;5027341;28;20931;-47
2023/08/21 08:38:39;;;;;;;1.83;1.10;;;20.50;99.90;;;;;;5020458;28;20196;-54
2023/08/21 08:41:13;;;;;;;2.42;0.98;;;20.70;99.90;;;;;;5016139;28;20215;-48
2023/08/21 08:43:41;;;;;;;2.53;1.30;;;20.70;99.90;;;;;;5028043;28;20208;-47
2023/08/21 08:46:09;;;;;;;4.82;1.33;;;20.60;99.90;;;;;;5013338;28;20222;-55
2023/08/21 08:48:37;;;;;;;3.80;1.10;;;20.60;99.90;;;;;;5010921;28;20270;-51
2023/08/21 08:51:06;;;;;;;2.60;1.25;;;20.80;99.90;;;;;;5031358;28;20191;-52
2023/08/21 08:53:34;;;;;;;3.40;1.63;;;20.80;99.90;;;;;;5022105;28;20220;-55
2023/08/21 08:56:01;;;;;;;3.38;1.33;;;20.80;99.90;;;;;;5023456;28;20281;-52
2023/08/21 08:58:29;;;;;;;2.38;1.10;;;20.80;99.90;;;;;;5026695;28;20188;-56
2023/08/21 09:00:56;;;;;;;3.25;1.42;;;20.90;99.90;;;;;;5018344;28;20215;-56
2023/08/21 09:03:24;;;;;;;3.47;0.90;;;21.00;99.90;;;;;;5002814;28;20876;-55
2023/08/21 09:05:51;;;;;;;3.35;0.90;;;21.10;99.90;;;;;;5025117;28;20670;-49
2023/08/21 09:08:21;;;;;;;3.67;1.33;;;21.20;99.90;;;;;;5025230;28;20215;-57
2023/08/21 09:10:48;;;;;;;4.35;1.00;;;21.10;99.90;;;;;;5009982;28;20192;-45
2023/08/21 09:13:17;;;;;;;4.50;1.15;;;21.10;99.90;;;;;;5021048;28;20227;-55
2023/08/21 09:15:46;;;;;;;4.40;1.00;;;21.20;99.90;;;;;;5013460;28;20204;-45
2023/08/21 09:18:15;;;;;;;4.65;1.05;;;21.20;99.90;;;;;;4998757;28;20204;-52
2023/08/21 09:20:42;;;;;;;4.45;1.00;;;21.30;99.90;;;;;;5022620;28;20880;-49
2023/08/21 09:23:15;;;;;;;6.50;1.30;;;21.30;99.90;;;;;;5021431;28;20689;-55
2023/08/21 09:25:47;;;;;;;3.03;1.00;;;21.20;99.90;;;;;;5022281;28;20200;-48
2023/08/21 09:28:15;;;;;;;3.45;1.00;;;21.00;99.90;;;;;;5019027;28;20231;-51
2023/08/21 09:30:46;;;;;;;3.42;1.20;;;21.00;99.90;;;;;;5025646;28;20203;-52
2023/08/21 09:33:14;;;;;;;4.10;1.00;;;21.10;99.90;;;;;;5003259;28;20220;-52
2023/08/21 09:35:43;;;;;;;3.40;0.95;;;21.00;99.90;;;;;;5018136;28;20204;-53
2023/08/21 09:38:11;;;;;;;2.45;0.75;;;21.00;99.90;;;;;;5029549;28;20202;-50
2023/08/21 09:40:41;;;;;;;3.60;1.00;;;21.00;99.90;;;;;;5022631;28;21657;-51
2023/08/21 09:43:12;;;;;;;6.97;1.27;;;21.10;99.90;;;;;;5010028;28;20246;-50
2023/08/21 09:45:39;;;;;;;5.63;1.08;;;21.20;99.90;;;;;;5030444;28;20183;-53
2023/08/21 09:48:08;;;;;;;4.28;1.00;;;21.30;99.90;;;;;;5009710;28;20215;-50
2023/08/21 09:50:38;;;;;;;1.90;0.60;;;21.40;99.90;;;;;;5008385;28;20461;-49
2023/08/21 09:53:08;;;;;;;2.33;0.85;;;21.40;99.90;;;;;;5032539;28;20290;-52
2023/08/21 09:55:36;;;;;;;1.83;1.20;;;21.50;99.90;;;;;;5024135;28;20202;-52
2023/08/21 09:58:04;;;;;;;3.88;1.23;;;21.60;99.90;;;;;;5012907;28;20286;-47
2023/08/21 10:00:34;;;;;;;3.13;0.98;;;21.60;99.90;;;;;;5022619;28;20199;-49
2023/08/21 10:03:04;;;;;;;1.42;0.80;;;21.60;99.90;;;;;;5030108;28;20610;-50
2023/08/21 10:05:33;;;;;;;3.63;1.00;;;21.60;99.90;;;;;;5002440;28;20192;-49
2023/08/21 10:08:03;;;;;;;3.75;1.25;;;21.70;99.90;;;;;;5032618;28;20216;-57
2023/08/21 10:10:32;;;;;;;2.75;0.90;;;21.70;99.90;;;;;;5029928;28;20183;-52
2023/08/21 10:13:00;;;;;;;2.65;1.38;;;21.70;99.90;;;;;;5018250;28;20228;-57
2023/08/21 10:15:29;;;;;;;3.72;1.02;;;21.80;99.90;;;;;;5015686;28;20194;-48
2023/08/21 10:17:58;;;;;;;2.35;0.98;;;21.80;99.90;;;;;;5025618;28;20554;-55
2023/08/21 10:20:27;;;;;;;5.50;1.20;;;21.70;99.90;;;;;;4993758;28;20207;-47
2023/08/21 10:23:01;;;;;;;2.17;1.20;;;21.80;99.90;;;;;;5023469;28;20219;-44
2023/08/21 10:25:29;;;;;;;2.10;1.33;;;21.90;99.90;;;;;;5007798;28;20322;-55
2023/08/21 10:27:58;;;;;;;2.20;0.93;;;22.00;99.90;;;;;;5014680;28;20223;-44
2023/08/21 10:30:29;;;;;;;1.77;0.75;;;22.00;99.90;;;;;;5011714;28;20204;-49
2023/08/21 10:33:01;;;;;;;1.23;0.80;;;21.90;99.90;;;;;;5012418;28;20220;-45
2023/08/21 10:35:34;;;;;;;3.58;0.80;;;22.00;99.90;;;;;;5010005;28;20231;-56
2023/08/21 10:38:11;;;;;;;4.25;1.00;;;22.00;99.90;;;;;;5020610;28;20192;-45
2023/08/21 10:40:39;;;;;;;4.38;1.20;;;22.10;99.90;;;;;;5025556;28;20230;-54
2023/08/21 10:43:39;;;;;;;2.50;1.20;;;22.10;99.90;;;;;;5019790;28;20698;-45
2023/08/21 10:46:06;;;;;;;2.78;0.90;;;22.10;99.90;;;;;;5011846;28;20219;-52
2023/08/21 10:48:34;;;;;;;4.72;0.98;;;22.20;99.90;;;;;;5018386;28;20297;-57
2023/08/21 10:51:03;;;;;;;3.53;0.85;;;22.20;99.90;;;;;;4995743;28;20286;-49
2023/08/21 10:53:31;;;;;;;3.00;1.30;;;22.20;99.90;;;;;;5025589;28;20620;-54
2023/08/21 10:55:58;;;;;;;1.92;1.10;;;22.30;99.90;;;;;;5027789;28;20192;-57
2023/08/21 10:58:26;;;;;;;2.38;0.85;;;22.40;99.90;;;;;;5024201;28;20222;-50
2023/08/21 11:01:00;;;;;;;2.10;1.10;;;22.50;99.90;;;;;;5016811;28;20192;-48
2023/08/21 11:03:28;;;;;;;4.32;1.33;;;22.60;99.90;;;;;;5020232;28;20231;-52
2023/08/21 11:06:07;;;;;;;2.55;1.00;;;22.50;99.90;;;;;;5020703;28;22989;-48
2023/08/21 11:08:36;;;;;;;4.63;0.82;;;22.50;99.90;;;;;;5009548;28;20207;-51
2023/08/21 11:11:05;;;;;;;1.63;0.80;;;22.50;99.90;;;;;;5030165;28;20217;-55
2023/08/21 11:13:32;;;;;;;4.32;1.00;;;22.50;99.90;;;;;;5028432;28;20364;-49
2023/08/21 11:16:00;;;;;;;4.68;1.05;;;22.50;99.90;;;;;;5011606;28;20184;-56
2023/08/21 11:18:34;;;;;;;1.25;0.68;;;22.50;99.90;;;;;;5028889;28;20195;-54
2023/08/21 11:21:09;;;;;;;2.35;0.80;;;22.60;99.90;;;;;;5027541;28;20184;-56
2023/08/21 11:23:37;;;;;;;1.83;0.70;;;22.80;99.90;;;;;;4993579;28;20234;-51
2023/08/21 11:26:05;;;;;;;3.35;1.20;;;22.90;99.90;;;;;;5014016;28;20204;-53
2023/08/21 11:28:33;;;;;;;3.58;1.23;;;22.90;99.90;;;;;;5017397;28;20265;-55
2023/08/21 11:31:00;;;;;;;2.63;0.70;;;22.90;99.90;;;;;;5013616;28;20586;-52
2023/08/21 11:33:29;;;;;;;2.92;0.85;;;22.90;99.90;;;;;;5013798;28;20218;-53
2023/08/21 11:35:58;;;;;;;3.47;1.20;;;22.90;99.90;;;;;;5033610;28;20266;-55
2023/08/21 11:38:29;;;;;;;2.85;0.60;;;23.00;99.90;;;;;;4996078;28;20234;-53
2023/08/21 11:40:57;;;;;;;1.17;0.50;;;23.10;99.90;;;;;;5015489;28;20946;-55
2023/08/21 11:43:36;;;;;;;0.90;0.50;;;23.10;99.90;;;;;;5017879;28;20226;-55
2023/08/21 11:46:04;;;;;;;0.50;0.47;;;23.10;99.90;;;;;;5010109;28;20200;-50
2023/08/21 11:48:31;;;;;;;2.35;0.65;;;23.00;99.90;;;;;;5024740;28;20216;-50
2023/08/21 11:50:59;;;;;;;2.33;0.77;;;22.90;99.90;;;;;;5020891;28;20196;-54
2023/08/21 11:53:36;;;;;;;1.48;0.60;;;22.90;99.90;;;;;;5017539;28;20216;-55
2023/08/21 11:56:09;;;;;;;2.33;0.88;;;23.00;99.90;;;;;;5009404;28;20540;-50
2023/08/21 11:58:39;;;;;;;1.17;0.50;;;23.10;99.90;;;;;;5014179;28;20197;-47
2023/08/21 12:01:07;;;;;;;1.77;0.90;;;23.10;99.90;;;;;;5009794;28;20319;-51
2023/08/21 12:03:38;;;;;;;1.83;0.88;;;23.20;99.90;;;;;;5026868;28;20224;-48
2023/08/21 12:06:08;;;;;;;1.75;0.77;;;23.30;99.90;;;;;;5028748;28;20187;-51
2023/08/21 12:08:38;;;;;;;1.08;0.50;;;23.40;99.90;;;;;;5019301;28;20220;-50
2023/08/21 12:11:05;;;;;;;1.60;0.90;;;23.30;99.90;;;;;;5003914;28;20208;-48
2023/08/21 12:13:33;;;;;;;3.30;0.60;;;23.30;99.90;;;;;;5025961;28;20239;-48
2023/08/21 12:16:00;;;;;;;1.15;0.70;;;23.30;99.90;;;;;;5004009;28;20200;-53
2023/08/21 12:18:28;;;;;;;2.63;0.80;;;23.40;99.90;;;;;;5024043;28;20193;-45
2023/08/21 12:20:55;;;;;;;1.13;0.95;;;23.40;99.90;;;;;;5029761;28;20279;-46
2023/08/21 12:23:22;;;;;;;1.90;0.68;;;23.50;99.90;;;;;;5021065;28;20228;-50
2023/08/21 12:25:55;;;;;;;1.50;0.60;;;23.50;99.90;;;;;;5008967;28;20274;-56
2023/08/21 12:28:22;;;;;;;3.60;0.75;;;23.50;99.90;;;;;;5033199;28;20219;-49
2023/08/21 12:30:58;;;;;;;0.85;0.43;;;23.50;99.90;;;;;;5018128;28;20279;-50
2023/08/21 12:33:26;;;;;;;1.40;0.93;;;23.50;99.90;;;;;;5023262;28;20580;-46
2023/08/21 12:35:54;;;;;;;1.75;0.80;;;23.60;99.90;;;;;;5030045;28;20212;-47
2023/08/21 12:38:21;;;;;;;3.42;0.60;;;23.60;99.90;;;;;;5022418;28;20291;-48
2023/08/21 12:40:48;;;;;;;1.73;0.57;;;23.60;99.90;;;;;;5025219;28;20194;-56
2023/08/21 12:43:16;;;;;;;1.13;0.70;;;23.70;99.90;;;;;;4995277;28;20231;-55
2023/08/21 12:45:43;;;;;;;1.98;0.50;;;23.70;99.90;;;;;;5016157;28;20231;-52
2023/08/21 12:48:10;;;;;;;0.93;0.60;;;23.80;99.90;;;;;;5011313;28;20281;-58